THY5CL LTFM-UBBB
Flight info
| Callsign | THY5CL |
|---|---|
| Flight time | N/A |
| Altitude | 35000 |
| Route | ASMAP UL333 LATGA UT363 GURBU UL615 ERZ UN161 INDUR DCT GOGOL DCT VETEN N449 GOTUB T447 INSAN |
| Aircraft | B738/M-SDE2E3FGHIRWXY/LB1 |
Departure
| Time | 2026-05-01 12:18 |
|---|---|
| Airport | İstanbul Airport (LTFM) |
Arrival
| Time | N/A |
|---|---|
| Airport | Heydar Aliyev International Airport (UBBB) |
| Time | Latitude | Longitude | Altitude | Speed | Heading |
|---|---|---|---|---|---|
| 2026-05-01 11:25 | 41.26089 | 28.73592 | 335 ft | 0 kts | 107° |
| 2026-05-01 12:07 | 41.26091 | 28.73584 | 334 ft | 2 kts | 110° |
| 2026-05-01 12:07 | 41.26096 | 28.73566 | 334 ft | 2 kts | 107° |
| 2026-05-01 12:07 | 41.26100 | 28.73549 | 334 ft | 2 kts | 97° |
| 2026-05-01 12:07 | 41.26099 | 28.73529 | 334 ft | 2 kts | 78° |
| 2026-05-01 12:08 | 41.26094 | 28.73510 | 334 ft | 2 kts | 60° |
| 2026-05-01 12:08 | 41.26086 | 28.73494 | 334 ft | 2 kts | 44° |
| 2026-05-01 12:08 | 41.26073 | 28.73482 | 334 ft | 2 kts | 26° |
| 2026-05-01 12:08 | 41.26062 | 28.73477 | 334 ft | 2 kts | 13° |
| 2026-05-01 12:09 | 41.26047 | 28.73472 | 334 ft | 2 kts | 17° |
| 2026-05-01 12:09 | 41.26033 | 28.73466 | 334 ft | 2 kts | 15° |
| 2026-05-01 12:09 | 41.26026 | 28.73464 | 334 ft | 0 kts | 16° |
| 2026-05-01 12:09 | 41.26025 | 28.73464 | 334 ft | 0 kts | 16° |
| 2026-05-01 12:13 | 41.26028 | 28.73465 | 334 ft | 0 kts | 16° |
| 2026-05-01 12:13 | 41.26037 | 28.73468 | 334 ft | 1 kts | 16° |
| 2026-05-01 12:13 | 41.26049 | 28.73473 | 334 ft | 2 kts | 16° |
| 2026-05-01 12:14 | 41.26072 | 28.73481 | 334 ft | 4 kts | 16° |
| 2026-05-01 12:14 | 41.26109 | 28.73495 | 334 ft | 6 kts | 17° |
| 2026-05-01 12:14 | 41.26151 | 28.73512 | 334 ft | 5 kts | 12° |
| 2026-05-01 12:14 | 41.26190 | 28.73506 | 334 ft | 7 kts | 328° |
| 2026-05-01 12:15 | 41.26210 | 28.73419 | 334 ft | 13 kts | 270° |
| 2026-05-01 12:15 | 41.26209 | 28.73290 | 334 ft | 13 kts | 270° |
| 2026-05-01 12:15 | 41.26207 | 28.73176 | 334 ft | 11 kts | 269° |
| 2026-05-01 12:15 | 41.26206 | 28.73077 | 334 ft | 10 kts | 269° |
| 2026-05-01 12:16 | 41.26205 | 28.72990 | 334 ft | 8 kts | 269° |
| 2026-05-01 12:16 | 41.26205 | 28.72905 | 334 ft | 11 kts | 269° |
| 2026-05-01 12:16 | 41.26203 | 28.72778 | 334 ft | 15 kts | 270° |
| 2026-05-01 12:16 | 41.26201 | 28.72641 | 334 ft | 13 kts | 269° |
| 2026-05-01 12:17 | 41.26212 | 28.72540 | 334 ft | 9 kts | 318° |
| 2026-05-01 12:17 | 41.26266 | 28.72524 | 334 ft | 8 kts | 359° |
| 2026-05-01 12:17 | 41.26368 | 28.72521 | 334 ft | 29 kts | 357° |
| 2026-05-01 12:17 | 41.26837 | 28.72511 | 335 ft | 102 kts | 359° |
| 2026-05-01 12:18 | 41.27760 | 28.72496 | 335 ft | 159 kts | 359° |
| 2026-05-01 12:18 | 41.28956 | 28.72434 | 742 ft | 176 kts | 1° |
| 2026-05-01 12:18 | 41.30135 | 28.72368 | 1781 ft | 170 kts | 3° |
| 2026-05-01 12:18 | 41.31269 | 28.72333 | 2601 ft | 164 kts | 4° |
| 2026-05-01 12:19 | 41.32460 | 28.72321 | 3021 ft | 174 kts | 4° |
| 2026-05-01 12:19 | 41.33649 | 28.72307 | 3592 ft | 175 kts | 4° |
| 2026-05-01 12:19 | 41.34925 | 28.72280 | 3959 ft | 190 kts | 3° |
| 2026-05-01 12:19 | 41.36284 | 28.72251 | 4312 ft | 205 kts | 3° |
| 2026-05-01 12:20 | 41.37777 | 28.72219 | 4682 ft | 221 kts | 2° |
| 2026-05-01 12:20 | 41.39343 | 28.72185 | 5097 ft | 234 kts | 2° |
| 2026-05-01 12:20 | 41.41015 | 28.72365 | 5202 ft | 242 kts | 21° |
| 2026-05-01 12:20 | 41.42324 | 28.73635 | 5205 ft | 237 kts | 56° |
| 2026-05-01 12:21 | 41.42771 | 28.75752 | 5221 ft | 241 kts | 85° |
| 2026-05-01 12:21 | 41.42697 | 28.78030 | 5213 ft | 245 kts | 89° |
| 2026-05-01 12:21 | 41.42587 | 28.80286 | 5205 ft | 245 kts | 89° |
| 2026-05-01 12:21 | 41.42482 | 28.82628 | 5428 ft | 262 kts | 89° |
| 2026-05-01 12:22 | 41.42379 | 28.85015 | 6245 ft | 259 kts | 89° |
| 2026-05-01 12:22 | 41.42287 | 28.87404 | 6892 ft | 262 kts | 89° |
| 2026-05-01 12:22 | 41.42209 | 28.89837 | 7502 ft | 267 kts | 89° |
| 2026-05-01 12:22 | 41.42135 | 28.92314 | 8100 ft | 272 kts | 89° |
| 2026-05-01 12:23 | 41.41985 | 28.94810 | 8673 ft | 279 kts | 101° |
| 2026-05-01 12:23 | 41.41251 | 28.97254 | 9281 ft | 285 kts | 115° |
| 2026-05-01 12:23 | 41.40315 | 28.99596 | 9858 ft | 290 kts | 116° |
| 2026-05-01 12:23 | 41.39360 | 29.01986 | 10457 ft | 293 kts | 116° |
| 2026-05-01 12:24 | 41.38298 | 29.04280 | 10998 ft | 299 kts | 132° |
| 2026-05-01 12:24 | 41.36617 | 29.05888 | 11616 ft | 301 kts | 153° |
| 2026-05-01 12:24 | 41.34680 | 29.07096 | 12217 ft | 304 kts | 156° |
| 2026-05-01 12:24 | 41.32750 | 29.08263 | 12840 ft | 307 kts | 156° |
| 2026-05-01 12:25 | 41.30817 | 29.09452 | 13448 ft | 309 kts | 156° |
| 2026-05-01 12:25 | 41.26902 | 29.11918 | 14659 ft | 315 kts | 156° |
| 2026-05-01 12:25 | 41.24918 | 29.13194 | 15255 ft | 318 kts | 156° |
| 2026-05-01 12:26 | 41.22935 | 29.14488 | 15883 ft | 320 kts | 156° |
| 2026-05-01 12:26 | 41.18924 | 29.17156 | 17048 ft | 325 kts | 156° |
| 2026-05-01 12:26 | 41.16905 | 29.18521 | 17611 ft | 328 kts | 156° |
| 2026-05-01 12:27 | 41.14889 | 29.19951 | 18112 ft | 334 kts | 149° |
| 2026-05-01 12:27 | 41.11752 | 29.24656 | 19221 ft | 347 kts | 123° |
| 2026-05-01 12:28 | 41.09381 | 29.30348 | 20203 ft | 357 kts | 122° |
| 2026-05-01 12:28 | 41.08189 | 29.33223 | 20699 ft | 359 kts | 122° |
| 2026-05-01 12:28 | 41.05766 | 29.39041 | 21737 ft | 363 kts | 123° |
| 2026-05-01 12:29 | 41.04544 | 29.41927 | 22243 ft | 364 kts | 123° |
| 2026-05-01 12:29 | 41.03297 | 29.44861 | 22614 ft | 369 kts | 123° |
| 2026-05-01 12:29 | 41.00763 | 29.50830 | 23535 ft | 373 kts | 124° |
| 2026-05-01 12:30 | 40.98191 | 29.56820 | 24400 ft | 377 kts | 124° |
| 2026-05-01 12:30 | 40.96909 | 29.59815 | 24839 ft | 379 kts | 124° |
| 2026-05-01 12:30 | 40.95605 | 29.62859 | 25181 ft | 383 kts | 124° |
| 2026-05-01 12:31 | 40.94286 | 29.65939 | 25745 ft | 380 kts | 125° |
| 2026-05-01 12:31 | 40.93011 | 29.68919 | 26296 ft | 377 kts | 125° |
| 2026-05-01 12:31 | 40.91712 | 29.71951 | 26759 ft | 376 kts | 126° |
| 2026-05-01 12:31 | 40.90421 | 29.74959 | 27121 ft | 377 kts | 126° |
| 2026-05-01 12:32 | 40.89128 | 29.77970 | 27547 ft | 377 kts | 126° |
| 2026-05-01 12:32 | 40.86596 | 29.83864 | 28442 ft | 373 kts | 126° |
| 2026-05-01 12:32 | 40.85315 | 29.86842 | 28813 ft | 374 kts | 126° |
| 2026-05-01 12:33 | 40.84030 | 29.89822 | 29212 ft | 372 kts | 126° |
| 2026-05-01 12:33 | 40.82767 | 29.92756 | 29643 ft | 370 kts | 126° |
| 2026-05-01 12:33 | 40.81482 | 29.95732 | 29934 ft | 372 kts | 127° |
| 2026-05-01 12:33 | 40.80207 | 29.98681 | 30331 ft | 370 kts | 127° |
| 2026-05-01 12:34 | 40.78936 | 30.01619 | 30617 ft | 371 kts | 127° |
| 2026-05-01 12:34 | 40.77635 | 30.04612 | 30694 ft | 378 kts | 127° |
| 2026-05-01 12:34 | 40.74929 | 30.10821 | 30644 ft | 399 kts | 127° |
| 2026-05-01 12:35 | 40.72092 | 30.17330 | 30558 ft | 419 kts | 127° |
| 2026-05-01 12:35 | 40.69160 | 30.24077 | 30759 ft | 432 kts | 125° |
| 2026-05-01 12:36 | 40.67870 | 30.27668 | 31170 ft | 434 kts | 118° |
| 2026-05-01 12:36 | 40.66846 | 30.31411 | 31408 ft | 440 kts | 112° |
| 2026-05-01 12:36 | 40.66143 | 30.35331 | 31700 ft | 445 kts | 105° |
| 2026-05-01 12:36 | 40.65707 | 30.39380 | 32000 ft | 447 kts | 101° |
| 2026-05-01 12:37 | 40.65369 | 30.43462 | 32264 ft | 448 kts | 101° |
| 2026-05-01 12:37 | 40.65054 | 30.47532 | 32522 ft | 448 kts | 100° |
| 2026-05-01 12:37 | 40.64740 | 30.51561 | 32732 ft | 449 kts | 101° |
| 2026-05-01 12:37 | 40.64410 | 30.55682 | 33038 ft | 448 kts | 101° |
| 2026-05-01 12:38 | 40.64079 | 30.59736 | 33271 ft | 449 kts | 101° |
| 2026-05-01 12:38 | 40.63741 | 30.63799 | 33532 ft | 448 kts | 101° |
| 2026-05-01 12:38 | 40.63384 | 30.67859 | 33713 ft | 448 kts | 103° |
| 2026-05-01 12:38 | 40.62876 | 30.71887 | 33950 ft | 443 kts | 108° |
| 2026-05-01 12:39 | 40.62162 | 30.75796 | 34137 ft | 442 kts | 111° |
| 2026-05-01 12:39 | 40.61362 | 30.79665 | 34280 ft | 443 kts | 111° |
| 2026-05-01 12:39 | 40.60518 | 30.83609 | 34485 ft | 443 kts | 111° |
| 2026-05-01 12:39 | 40.59690 | 30.87474 | 34754 ft | 441 kts | 111° |
| 2026-05-01 12:40 | 40.58868 | 30.91332 | 34998 ft | 440 kts | 111° |
| 2026-05-01 12:40 | 40.58041 | 30.95208 | 35047 ft | 443 kts | 111° |
| 2026-05-01 12:40 | 40.56363 | 31.03050 | 35069 ft | 452 kts | 111° |
| 2026-05-01 12:41 | 40.54637 | 31.11090 | 35059 ft | 462 kts | 111° |
| 2026-05-01 12:41 | 40.52871 | 31.19307 | 35046 ft | 471 kts | 111° |
| 2026-05-01 12:42 | 40.51079 | 31.27618 | 35049 ft | 481 kts | 111° |
| 2026-05-01 12:42 | 40.49226 | 31.36180 | 35036 ft | 490 kts | 110° |
| 2026-05-01 12:43 | 40.47353 | 31.44798 | 35028 ft | 494 kts | 111° |
| 2026-05-01 12:43 | 40.45473 | 31.53437 | 35013 ft | 491 kts | 110° |
| 2026-05-01 12:44 | 40.43599 | 31.62019 | 35009 ft | 490 kts | 111° |
| 2026-05-01 12:45 | 40.39817 | 31.79212 | 34989 ft | 491 kts | 111° |
| 2026-05-01 12:45 | 40.37928 | 31.87780 | 35001 ft | 488 kts | 111° |
| 2026-05-01 12:46 | 40.36044 | 31.96279 | 34981 ft | 487 kts | 111° |
| 2026-05-01 12:46 | 40.34134 | 32.04800 | 34987 ft | 488 kts | 111° |
| 2026-05-01 12:47 | 40.32267 | 32.13290 | 34996 ft | 487 kts | 110° |
| 2026-05-01 12:47 | 40.30585 | 32.21870 | 35002 ft | 488 kts | 109° |
| 2026-05-01 12:48 | 40.28908 | 32.30505 | 34960 ft | 487 kts | 109° |
| 2026-05-01 12:48 | 40.27209 | 32.39117 | 35007 ft | 488 kts | 109° |
| 2026-05-01 12:49 | 40.25508 | 32.47643 | 34997 ft | 486 kts | 109° |
| 2026-05-01 12:49 | 40.23797 | 32.56202 | 34987 ft | 484 kts | 109° |
| 2026-05-01 12:50 | 40.22083 | 32.64724 | 34991 ft | 486 kts | 109° |
| 2026-05-01 12:50 | 40.20372 | 32.73184 | 34990 ft | 482 kts | 110° |
| 2026-05-01 12:51 | 40.18647 | 32.81679 | 34986 ft | 482 kts | 110° |
| 2026-05-01 12:52 | 40.16928 | 32.90108 | 34993 ft | 481 kts | 110° |
| 2026-05-01 12:52 | 40.15359 | 32.98631 | 34998 ft | 486 kts | 104° |